<?xml version="1.0" encoding="UTF-8" standalone="no" ?>
<gpx xmlns="http://www.topografix.com/GPX/1/1" xmlns:xsi="http://www.w3.org/2001/XMLSchema-instance" xsi:schemaLocation="http://www.topografix.com/GPX/1/1 http://www.topografix.com/GPX/1/1/gpx.xsd" version="1.1" creator="VisuGPX - https://www.visugpx.com">
  <metadata>
    <name>Balade</name>
    <desc><![CDATA[essai de transfer de tracé en itinéraire]]></desc>
  </metadata>
  <trk>
    <name><![CDATA[Tracé actuel: 26 MARS 2013 07:15]]></name>
    <trkseg>
      <trkpt lat="49.07494" lon="7.13525">
        <ele>241.91</ele>
        <time>2013-03-26T05:15:41Z</time>
      </trkpt>
      <trkpt lat="49.07524" lon="7.13535">
        <ele>239.51</ele>
        <time>2013-03-26T05:16:06Z</time>
      </trkpt>
      <trkpt lat="49.07538" lon="7.13543">
        <ele>236.14</ele>
        <time>2013-03-26T05:16:17Z</time>
      </trkpt>
      <trkpt lat="49.07543" lon="7.13546">
        <ele>232.78</ele>
        <time>2013-03-26T05:16:21Z</time>
      </trkpt>
      <trkpt lat="49.07549" lon="7.13551">
        <ele>228.93</ele>
        <time>2013-03-26T05:16:27Z</time>
      </trkpt>
      <trkpt lat="49.0755" lon="7.13552">
        <ele>228.93</ele>
        <time>2013-03-26T05:16:28Z</time>
      </trkpt>
      <trkpt lat="49.07555" lon="7.13555">
        <ele>226.53</ele>
        <time>2013-03-26T05:16:32Z</time>
      </trkpt>
      <trkpt lat="49.0756" lon="7.1356">
        <ele>224.12</ele>
        <time>2013-03-26T05:16:37Z</time>
      </trkpt>
      <trkpt lat="49.07566" lon="7.13567">
        <ele>220.76</ele>
        <time>2013-03-26T05:16:45Z</time>
      </trkpt>
      <trkpt lat="49.07569" lon="7.13568">
        <ele>219.8</ele>
        <time>2013-03-26T05:16:47Z</time>
      </trkpt>
      <trkpt lat="49.07585" lon="7.13578">
        <ele>216.43</ele>
        <time>2013-03-26T05:16:56Z</time>
      </trkpt>
      <trkpt lat="49.07613" lon="7.13593">
        <ele>214.03</ele>
        <time>2013-03-26T05:17:14Z</time>
      </trkpt>
      <trkpt lat="49.07615" lon="7.13593">
        <ele>213.55</ele>
        <time>2013-03-26T05:17:28Z</time>
      </trkpt>
      <trkpt lat="49.0763" lon="7.13604">
        <ele>212.59</ele>
        <time>2013-03-26T05:17:49Z</time>
      </trkpt>
      <trkpt lat="49.07659" lon="7.13613">
        <ele>211.63</ele>
        <time>2013-03-26T05:18:10Z</time>
      </trkpt>
      <trkpt lat="49.07658" lon="7.13588">
        <ele>213.07</ele>
        <time>2013-03-26T05:18:34Z</time>
      </trkpt>
      <trkpt lat="49.07658" lon="7.13548">
        <ele>215.47</ele>
        <time>2013-03-26T05:18:58Z</time>
      </trkpt>
      <trkpt lat="49.07657" lon="7.13539">
        <ele>216.43</ele>
        <time>2013-03-26T05:19:12Z</time>
      </trkpt>
      <trkpt lat="49.07654" lon="7.13531">
        <ele>216.91</ele>
        <time>2013-03-26T05:19:18Z</time>
      </trkpt>
      <trkpt lat="49.07629" lon="7.13529">
        <ele>219.32</ele>
        <time>2013-03-26T05:19:43Z</time>
      </trkpt>
      <trkpt lat="49.07592" lon="7.13525">
        <ele>221.72</ele>
        <time>2013-03-26T05:20:11Z</time>
      </trkpt>
      <trkpt lat="49.07574" lon="7.13484">
        <ele>222.68</ele>
        <time>2013-03-26T05:20:37Z</time>
      </trkpt>
      <trkpt lat="49.07593" lon="7.13458">
        <ele>223.64</ele>
        <time>2013-03-26T05:20:59Z</time>
      </trkpt>
      <trkpt lat="49.07617" lon="7.13454">
        <ele>225.57</ele>
        <time>2013-03-26T05:21:21Z</time>
      </trkpt>
      <trkpt lat="49.07636" lon="7.13446">
        <ele>226.53</ele>
        <time>2013-03-26T05:21:42Z</time>
      </trkpt>
      <trkpt lat="49.07646" lon="7.13424">
        <ele>226.53</ele>
        <time>2013-03-26T05:22:07Z</time>
      </trkpt>
      <trkpt lat="49.07646" lon="7.13384">
        <ele>229.41</ele>
        <time>2013-03-26T05:22:28Z</time>
      </trkpt>
      <trkpt lat="49.07643" lon="7.13333">
        <ele>232.3</ele>
        <time>2013-03-26T05:22:54Z</time>
      </trkpt>
      <trkpt lat="49.07643" lon="7.13284">
        <ele>235.18</ele>
        <time>2013-03-26T05:23:19Z</time>
      </trkpt>
      <trkpt lat="49.07645" lon="7.13223">
        <ele>237.1</ele>
        <time>2013-03-26T05:23:49Z</time>
      </trkpt>
      <trkpt lat="49.07647" lon="7.13221">
        <ele>237.1</ele>
        <time>2013-03-26T05:23:51Z</time>
      </trkpt>
      <trkpt lat="49.07679" lon="7.13212">
        <ele>238.54</ele>
        <time>2013-03-26T05:24:16Z</time>
      </trkpt>
      <trkpt lat="49.07694" lon="7.1321">
        <ele>239.02</ele>
        <time>2013-03-26T05:24:30Z</time>
      </trkpt>
      <trkpt lat="49.07697" lon="7.13214">
        <ele>239.02</ele>
        <time>2013-03-26T05:24:48Z</time>
      </trkpt>
      <trkpt lat="49.07722" lon="7.13204">
        <ele>239.51</ele>
        <time>2013-03-26T05:25:08Z</time>
      </trkpt>
      <trkpt lat="49.07758" lon="7.13191">
        <ele>240.47</ele>
        <time>2013-03-26T05:25:35Z</time>
      </trkpt>
      <trkpt lat="49.07761" lon="7.13192">
        <ele>240.47</ele>
        <time>2013-03-26T05:25:54Z</time>
      </trkpt>
      <trkpt lat="49.07784" lon="7.1318">
        <ele>240.47</ele>
        <time>2013-03-26T05:26:14Z</time>
      </trkpt>
      <trkpt lat="49.07813" lon="7.13164">
        <ele>239.99</ele>
        <time>2013-03-26T05:26:36Z</time>
      </trkpt>
      <trkpt lat="49.07856" lon="7.13152">
        <ele>239.02</ele>
        <time>2013-03-26T05:27:08Z</time>
      </trkpt>
      <trkpt lat="49.07873" lon="7.13173">
        <ele>237.58</ele>
        <time>2013-03-26T05:27:31Z</time>
      </trkpt>
      <trkpt lat="49.07906" lon="7.13179">
        <ele>237.58</ele>
        <time>2013-03-26T05:27:57Z</time>
      </trkpt>
      <trkpt lat="49.07908" lon="7.13179">
        <ele>238.06</ele>
        <time>2013-03-26T05:28:07Z</time>
      </trkpt>
      <trkpt lat="49.07929" lon="7.13164">
        <ele>239.51</ele>
        <time>2013-03-26T05:28:28Z</time>
      </trkpt>
      <trkpt lat="49.07958" lon="7.13137">
        <ele>241.43</ele>
        <time>2013-03-26T05:28:53Z</time>
      </trkpt>
      <trkpt lat="49.07997" lon="7.13109">
        <ele>242.87</ele>
        <time>2013-03-26T05:29:25Z</time>
      </trkpt>
      <trkpt lat="49.08023" lon="7.13086">
        <ele>243.35</ele>
        <time>2013-03-26T05:29:53Z</time>
      </trkpt>
      <trkpt lat="49.08028" lon="7.13083">
        <ele>242.87</ele>
        <time>2013-03-26T05:30:10Z</time>
      </trkpt>
      <trkpt lat="49.08064" lon="7.13065">
        <ele>242.87</ele>
        <time>2013-03-26T05:30:37Z</time>
      </trkpt>
      <trkpt lat="49.08092" lon="7.13072">
        <ele>240.47</ele>
        <time>2013-03-26T05:31:00Z</time>
      </trkpt>
      <trkpt lat="49.08098" lon="7.13069">
        <ele>240.95</ele>
        <time>2013-03-26T05:31:04Z</time>
      </trkpt>
      <trkpt lat="49.08124" lon="7.13023">
        <ele>239.99</ele>
        <time>2013-03-26T05:31:33Z</time>
      </trkpt>
      <trkpt lat="49.08126" lon="7.13018">
        <ele>239.99</ele>
        <time>2013-03-26T05:31:36Z</time>
      </trkpt>
      <trkpt lat="49.08153" lon="7.12966">
        <ele>240.47</ele>
        <time>2013-03-26T05:32:07Z</time>
      </trkpt>
      <trkpt lat="49.08172" lon="7.12932">
        <ele>240.95</ele>
        <time>2013-03-26T05:32:29Z</time>
      </trkpt>
      <trkpt lat="49.08191" lon="7.12866">
        <ele>242.39</ele>
        <time>2013-03-26T05:33:03Z</time>
      </trkpt>
      <trkpt lat="49.08212" lon="7.12806">
        <ele>243.83</ele>
        <time>2013-03-26T05:33:35Z</time>
      </trkpt>
      <trkpt lat="49.08248" lon="7.12813">
        <ele>242.87</ele>
        <time>2013-03-26T05:33:58Z</time>
      </trkpt>
      <trkpt lat="49.08291" lon="7.12829">
        <ele>240.95</ele>
        <time>2013-03-26T05:34:28Z</time>
      </trkpt>
      <trkpt lat="49.0833" lon="7.12848">
        <ele>239.99</ele>
        <time>2013-03-26T05:34:56Z</time>
      </trkpt>
      <trkpt lat="49.08354" lon="7.1286">
        <ele>239.02</ele>
        <time>2013-03-26T05:35:14Z</time>
      </trkpt>
      <trkpt lat="49.08354" lon="7.12864">
        <ele>239.02</ele>
        <time>2013-03-26T05:35:16Z</time>
      </trkpt>
      <trkpt lat="49.08357" lon="7.12867">
        <ele>238.54</ele>
        <time>2013-03-26T05:35:19Z</time>
      </trkpt>
      <trkpt lat="49.08364" lon="7.1287">
        <ele>238.06</ele>
        <time>2013-03-26T05:35:24Z</time>
      </trkpt>
      <trkpt lat="49.08402" lon="7.12891">
        <ele>237.1</ele>
        <time>2013-03-26T05:35:51Z</time>
      </trkpt>
      <trkpt lat="49.08442" lon="7.12914">
        <ele>234.7</ele>
        <time>2013-03-26T05:36:19Z</time>
      </trkpt>
      <trkpt lat="49.08454" lon="7.12921">
        <ele>234.22</ele>
        <time>2013-03-26T05:36:27Z</time>
      </trkpt>
      <trkpt lat="49.08483" lon="7.12945">
        <ele>231.81</ele>
        <time>2013-03-26T05:36:51Z</time>
      </trkpt>
      <trkpt lat="49.08515" lon="7.12969">
        <ele>229.41</ele>
        <time>2013-03-26T05:37:16Z</time>
      </trkpt>
      <trkpt lat="49.08521" lon="7.12975">
        <ele>228.45</ele>
        <time>2013-03-26T05:37:21Z</time>
      </trkpt>
      <trkpt lat="49.08506" lon="7.13017">
        <ele>227.01</ele>
        <time>2013-03-26T05:37:42Z</time>
      </trkpt>
      <trkpt lat="49.08483" lon="7.13055">
        <ele>225.57</ele>
        <time>2013-03-26T05:38:06Z</time>
      </trkpt>
      <trkpt lat="49.08454" lon="7.1309">
        <ele>223.64</ele>
        <time>2013-03-26T05:38:30Z</time>
      </trkpt>
      <trkpt lat="49.08424" lon="7.13127">
        <ele>221.72</ele>
        <time>2013-03-26T05:38:55Z</time>
      </trkpt>
      <trkpt lat="49.08386" lon="7.13162">
        <ele>220.76</ele>
        <time>2013-03-26T05:39:22Z</time>
      </trkpt>
      <trkpt lat="49.08344" lon="7.13189">
        <ele>220.28</ele>
        <time>2013-03-26T05:39:52Z</time>
      </trkpt>
      <trkpt lat="49.08304" lon="7.13209">
        <ele>220.28</ele>
        <time>2013-03-26T05:40:20Z</time>
      </trkpt>
      <trkpt lat="49.08258" lon="7.13234">
        <ele>220.28</ele>
        <time>2013-03-26T05:40:52Z</time>
      </trkpt>
      <trkpt lat="49.08208" lon="7.13253">
        <ele>219.8</ele>
        <time>2013-03-26T05:41:26Z</time>
      </trkpt>
      <trkpt lat="49.08164" lon="7.13274">
        <ele>220.76</ele>
        <time>2013-03-26T05:41:57Z</time>
      </trkpt>
      <trkpt lat="49.08144" lon="7.13283">
        <ele>221.24</ele>
        <time>2013-03-26T05:42:14Z</time>
      </trkpt>
      <trkpt lat="49.08104" lon="7.13302">
        <ele>221.24</ele>
        <time>2013-03-26T05:42:42Z</time>
      </trkpt>
      <trkpt lat="49.08089" lon="7.13303">
        <ele>220.76</ele>
        <time>2013-03-26T05:43:00Z</time>
      </trkpt>
      <trkpt lat="49.08045" lon="7.13324">
        <ele>220.28</ele>
        <time>2013-03-26T05:43:30Z</time>
      </trkpt>
      <trkpt lat="49.08002" lon="7.13349">
        <ele>220.76</ele>
        <time>2013-03-26T05:44:00Z</time>
      </trkpt>
      <trkpt lat="49.07977" lon="7.1337">
        <ele>216.91</ele>
        <time>2013-03-26T05:44:23Z</time>
      </trkpt>
      <trkpt lat="49.07972" lon="7.13378">
        <ele>216.43</ele>
        <time>2013-03-26T05:44:28Z</time>
      </trkpt>
      <trkpt lat="49.07961" lon="7.13417">
        <ele>213.07</ele>
        <time>2013-03-26T05:44:46Z</time>
      </trkpt>
      <trkpt lat="49.07935" lon="7.13449">
        <ele>211.15</ele>
        <time>2013-03-26T05:45:10Z</time>
      </trkpt>
      <trkpt lat="49.07931" lon="7.13454">
        <ele>211.15</ele>
        <time>2013-03-26T05:45:14Z</time>
      </trkpt>
      <trkpt lat="49.0793" lon="7.13491">
        <ele>208.74</ele>
        <time>2013-03-26T05:45:36Z</time>
      </trkpt>
      <trkpt lat="49.0793" lon="7.13498">
        <ele>208.74</ele>
        <time>2013-03-26T05:45:40Z</time>
      </trkpt>
      <trkpt lat="49.0793" lon="7.13539">
        <ele>208.26</ele>
        <time>2013-03-26T05:46:01Z</time>
      </trkpt>
      <trkpt lat="49.07925" lon="7.13544">
        <ele>207.78</ele>
        <time>2013-03-26T05:46:05Z</time>
      </trkpt>
      <trkpt lat="49.07873" lon="7.13564">
        <ele>208.74</ele>
        <time>2013-03-26T05:46:35Z</time>
      </trkpt>
      <trkpt lat="49.07832" lon="7.1358">
        <ele>210.19</ele>
        <time>2013-03-26T05:47:02Z</time>
      </trkpt>
      <trkpt lat="49.07795" lon="7.13598">
        <ele>210.19</ele>
        <time>2013-03-26T05:47:29Z</time>
      </trkpt>
      <trkpt lat="49.07764" lon="7.13613">
        <ele>209.7</ele>
        <time>2013-03-26T05:47:54Z</time>
      </trkpt>
      <trkpt lat="49.07743" lon="7.13622">
        <ele>210.19</ele>
        <time>2013-03-26T05:48:16Z</time>
      </trkpt>
      <trkpt lat="49.07736" lon="7.13628">
        <ele>210.19</ele>
        <time>2013-03-26T05:48:22Z</time>
      </trkpt>
      <trkpt lat="49.07711" lon="7.13641">
        <ele>209.22</ele>
        <time>2013-03-26T05:48:42Z</time>
      </trkpt>
      <trkpt lat="49.07681" lon="7.13631">
        <ele>212.11</ele>
        <time>2013-03-26T05:49:09Z</time>
      </trkpt>
      <trkpt lat="49.07664" lon="7.13622">
        <ele>212.59</ele>
        <time>2013-03-26T05:49:26Z</time>
      </trkpt>
      <trkpt lat="49.07629" lon="7.13609">
        <ele>213.55</ele>
        <time>2013-03-26T05:49:52Z</time>
      </trkpt>
      <trkpt lat="49.07601" lon="7.13589">
        <ele>214.03</ele>
        <time>2013-03-26T05:50:15Z</time>
      </trkpt>
      <trkpt lat="49.07567" lon="7.13571">
        <ele>214.51</ele>
        <time>2013-03-26T05:50:38Z</time>
      </trkpt>
      <trkpt lat="49.07531" lon="7.13549">
        <ele>215.95</ele>
        <time>2013-03-26T05:51:03Z</time>
      </trkpt>
      <trkpt lat="49.07505" lon="7.13543">
        <ele>219.32</ele>
        <time>2013-03-26T05:51:22Z</time>
      </trkpt>
      <trkpt lat="49.07494" lon="7.1355">
        <ele>220.28</ele>
        <time>2013-03-26T05:51:46Z</time>
      </trkpt>
    </trkseg>
  </trk>
</gpx>